createdAt,value
2022-12-04T00:02:01.675Z,18.52
2022-12-04T00:07:05.151Z,18.49
2022-12-04T00:12:08.584Z,18.48
2022-12-04T00:17:11.968Z,18.45
2022-12-04T00:22:15.401Z,18.45
2022-12-04T00:27:18.766Z,18.54
2022-12-04T00:32:22.115Z,18.54
2022-12-04T00:37:25.652Z,18.45
2022-12-04T00:42:29.066Z,18.37
2022-12-04T00:47:32.443Z,18.27
2022-12-04T00:52:35.800Z,18.26
2022-12-04T00:57:39.172Z,18.31
2022-12-04T01:02:42.596Z,18.25
2022-12-04T01:07:46.014Z,18.34
2022-12-04T01:12:49.429Z,18.29
2022-12-04T01:17:52.798Z,18.31
2022-12-04T01:22:56.207Z,18.29
2022-12-04T01:27:59.648Z,18.22
2022-12-04T01:33:03.067Z,18.27
2022-12-04T01:38:06.439Z,18.24
2022-12-04T01:43:09.827Z,18.18
2022-12-04T01:48:13.451Z,18.15
2022-12-04T01:53:16.841Z,18.21
2022-12-04T01:58:20.251Z,18.21
2022-12-04T02:03:23.681Z,18.16
2022-12-04T02:08:27.030Z,18.06
2022-12-04T02:13:30.403Z,18.06
2022-12-04T02:18:33.779Z,18.03
2022-12-04T02:23:37.319Z,18.02
2022-12-04T02:28:40.749Z,18.04
2022-12-04T02:33:44.145Z,18.00
2022-12-04T02:38:47.525Z,18.01
2022-12-04T02:43:50.896Z,18.05
2022-12-04T02:48:54.278Z,17.99
2022-12-04T02:53:57.631Z,17.94
2022-12-04T02:59:01.032Z,17.89
2022-12-04T03:04:04.457Z,17.87
2022-12-04T03:09:07.889Z,17.83
2022-12-04T03:14:11.307Z,17.83
2022-12-04T03:19:14.666Z,17.83
2022-12-04T03:24:18.104Z,17.83
2022-12-04T03:29:21.462Z,17.82
2022-12-04T03:34:24.873Z,17.82
2022-12-04T03:39:28.377Z,17.80
2022-12-04T03:44:31.738Z,17.76
2022-12-04T03:49:35.384Z,17.75
2022-12-04T03:54:38.824Z,17.72
2022-12-04T03:59:42.229Z,17.69
2022-12-04T04:04:45.634Z,17.70
2022-12-04T04:09:49.013Z,17.65
2022-12-04T04:15:09.970Z,17.66
2022-12-04T04:20:30.874Z,17.64
2022-12-04T04:25:34.288Z,17.60
2022-12-04T04:30:37.701Z,17.53
2022-12-04T04:35:41.076Z,17.53
2022-12-04T04:40:44.512Z,17.54
2022-12-04T04:45:47.898Z,17.54
2022-12-04T04:50:51.251Z,17.51
2022-12-04T04:55:54.676Z,17.49
2022-12-04T05:00:58.032Z,17.47
2022-12-04T05:06:01.394Z,17.48
2022-12-04T05:11:04.810Z,17.48
2022-12-04T05:16:08.302Z,17.43
2022-12-04T05:21:16.869Z,17.44
2022-12-04T05:26:20.367Z,17.40
2022-12-04T05:31:23.853Z,17.38
2022-12-04T05:36:27.263Z,17.36
2022-12-04T05:41:30.720Z,17.38
2022-12-04T05:46:34.203Z,17.36
2022-12-04T05:51:37.620Z,17.34
2022-12-04T05:56:40.988Z,17.30
2022-12-04T06:01:44.345Z,17.28
2022-12-04T06:06:47.749Z,17.32
2022-12-04T06:11:51.222Z,17.35
2022-12-04T06:16:54.699Z,17.30
2022-12-04T06:21:58.142Z,17.18
2022-12-04T06:27:26.680Z,17.16
2022-12-04T06:32:24.852Z,17.18
2022-12-04T06:37:28.354Z,17.20
2022-12-04T06:42:31.707Z,17.18
2022-12-04T06:47:35.108Z,17.16
2022-12-04T06:52:38.590Z,17.19
2022-12-04T06:57:41.972Z,17.15
2022-12-04T07:02:45.417Z,17.13
2022-12-04T07:07:48.884Z,17.11
2022-12-04T07:12:52.296Z,17.10
2022-12-04T07:17:55.689Z,17.07
2022-12-04T07:23:02.692Z,17.06
2022-12-04T07:28:10.473Z,17.05
2022-12-04T07:33:13.917Z,17.05
2022-12-04T07:38:17.317Z,17.04
2022-12-04T07:43:20.695Z,17.01
2022-12-04T07:48:27.498Z,16.96
2022-12-04T07:53:33.824Z,17.00
2022-12-04T07:58:37.248Z,16.96
2022-12-04T08:03:46.794Z,16.95
2022-12-04T08:08:50.832Z,16.92
2022-12-04T08:13:54.273Z,16.89
2022-12-04T08:18:58.160Z,16.88
2022-12-04T08:24:01.592Z,16.85
2022-12-04T08:29:04.940Z,16.82
2022-12-04T08:34:08.324Z,16.80
2022-12-04T08:39:13.083Z,16.78
2022-12-04T08:44:17.728Z,16.75
2022-12-04T08:49:21.735Z,16.74
2022-12-04T08:54:25.125Z,16.73
2022-12-04T08:59:28.602Z,16.73
2022-12-04T09:04:32.686Z,16.72
2022-12-04T09:09:37.080Z,16.70
2022-12-04T09:14:41.143Z,16.68
2022-12-04T09:19:44.666Z,16.69
2022-12-04T09:24:48.619Z,16.69
2022-12-04T09:29:52.321Z,16.70
2022-12-04T09:34:56.526Z,16.66
2022-12-04T09:40:00.672Z,16.62
2022-12-04T09:45:04.156Z,16.58
2022-12-04T09:50:07.853Z,16.57
2022-12-04T09:55:11.965Z,16.58
2022-12-04T10:00:16.545Z,16.61
2022-12-04T10:05:22.451Z,16.57
2022-12-04T10:10:27.130Z,16.57
2022-12-04T10:15:31.869Z,16.57
2022-12-04T10:20:35.964Z,16.59
2022-12-04T10:25:40.055Z,14.80
2022-12-04T10:30:44.039Z,14.67
2022-12-04T10:35:47.894Z,16.03
2022-12-04T10:40:51.634Z,16.16
2022-12-04T10:45:55.649Z,16.38
2022-12-04T10:51:00.465Z,16.50
2022-12-04T10:56:04.762Z,16.56
2022-12-04T11:01:08.918Z,16.58
2022-12-04T11:06:13.398Z,16.60
2022-12-04T11:11:17.885Z,16.62
2022-12-04T11:16:22.970Z,16.66
2022-12-04T11:21:27.714Z,16.65
2022-12-04T11:26:32.010Z,16.38
2022-12-04T11:31:36.200Z,16.57
2022-12-04T11:36:41.296Z,16.50
2022-12-04T11:41:45.587Z,16.41
2022-12-04T11:46:49.469Z,15.95
2022-12-04T11:51:53.464Z,13.92
2022-12-04T11:56:56.877Z,13.31
2022-12-04T12:02:00.445Z,15.00
2022-12-04T12:07:04.021Z,16.13
2022-12-04T12:12:07.485Z,16.25
2022-12-04T12:17:10.857Z,16.34
2022-12-04T12:22:14.819Z,16.36
2022-12-04T12:27:18.538Z,16.39
2022-12-04T12:32:22.002Z,16.41
2022-12-04T12:37:25.404Z,16.50
2022-12-04T12:42:28.836Z,16.48
2022-12-04T12:47:32.479Z,16.43
2022-12-04T12:52:36.688Z,16.39
2022-12-04T12:57:40.681Z,16.38
2022-12-04T13:02:44.521Z,16.38
2022-12-04T13:07:48.842Z,16.35
2022-12-04T13:12:52.259Z,16.24
2022-12-04T13:17:55.681Z,16.26
2022-12-04T13:22:59.151Z,16.24
2022-12-04T13:28:02.629Z,16.20
2022-12-04T13:33:06.127Z,16.16
2022-12-04T13:38:09.529Z,16.06
2022-12-04T13:43:12.907Z,15.99
2022-12-04T13:48:16.326Z,16.02
2022-12-04T13:53:19.761Z,16.01
2022-12-04T13:58:23.123Z,16.03
2022-12-04T14:03:26.515Z,16.05
2022-12-04T14:08:30.113Z,16.03
2022-12-04T14:13:33.497Z,16.12
2022-12-04T14:18:36.896Z,16.18
2022-12-04T14:23:40.273Z,16.17
2022-12-04T14:28:45.165Z,16.26
2022-12-04T14:33:48.615Z,16.25
2022-12-04T14:38:52.012Z,16.24
2022-12-04T14:43:55.446Z,16.23
2022-12-04T14:48:58.826Z,16.30
2022-12-04T15:00:01.597Z,16.32
2022-12-04T15:05:05.861Z,16.33
2022-12-04T15:10:27.105Z,16.32
2022-12-04T15:15:30.598Z,16.36
2022-12-04T15:20:38.819Z,16.41
2022-12-04T15:25:42.746Z,16.43
2022-12-04T15:30:46.241Z,16.48
2022-12-04T15:35:49.713Z,16.48
2022-12-04T15:41:22.794Z,16.53
2022-12-04T15:46:26.345Z,16.53
2022-12-04T15:51:29.779Z,16.60
2022-12-04T15:56:33.327Z,16.69
2022-12-04T16:01:36.731Z,16.78
2022-12-04T16:06:42.133Z,16.86
2022-12-04T16:11:45.592Z,16.93
2022-12-04T16:16:49.002Z,17.00
2022-12-04T16:21:52.534Z,17.08
2022-12-04T16:26:56.103Z,17.11
2022-12-04T16:32:03.058Z,17.24
2022-12-04T16:37:07.046Z,17.39
2022-12-04T16:42:10.455Z,17.39
2022-12-04T16:47:13.881Z,17.61
2022-12-04T16:52:17.272Z,17.71
2022-12-04T16:57:20.681Z,17.68
2022-12-04T17:02:24.078Z,17.68
2022-12-04T17:07:27.760Z,17.72
2022-12-04T17:12:31.248Z,17.76
2022-12-04T17:17:34.628Z,17.80
2022-12-04T17:22:38.033Z,17.82
2022-12-04T17:27:41.419Z,17.86
2022-12-04T17:32:45.605Z,17.87
2022-12-04T17:37:49.145Z,17.92
2022-12-04T17:42:52.514Z,17.95
2022-12-04T17:47:55.936Z,17.96
2022-12-04T17:52:59.369Z,17.99
2022-12-04T17:58:02.784Z,18.01
2022-12-04T18:03:06.280Z,18.04
2022-12-04T18:08:09.841Z,18.08
2022-12-04T18:13:13.260Z,18.09
2022-12-04T18:18:16.614Z,18.17
2022-12-04T18:23:19.996Z,18.15
2022-12-04T18:28:23.829Z,18.09
2022-12-04T18:33:27.799Z,18.11
2022-12-04T18:38:32.028Z,18.05
2022-12-04T18:43:35.667Z,17.96
2022-12-04T18:48:39.499Z,17.98
2022-12-04T18:53:43.004Z,18.09
2022-12-04T18:58:46.464Z,18.00
2022-12-04T19:03:49.936Z,18.00
2022-12-04T19:08:53.364Z,18.03
2022-12-04T19:13:56.722Z,18.03
2022-12-04T19:19:00.191Z,18.01
2022-12-04T19:24:03.734Z,18.00
2022-12-04T19:29:07.165Z,18.01
2022-12-04T19:34:10.796Z,18.06
2022-12-04T19:39:14.201Z,18.04
2022-12-04T19:49:41.036Z,18.17
2022-12-04T19:54:44.489Z,18.34
2022-12-04T19:59:47.950Z,18.33
2022-12-04T20:04:51.348Z,18.38
2022-12-04T20:09:54.890Z,18.39
2022-12-04T20:14:58.484Z,18.38
2022-12-04T20:20:01.867Z,18.46
2022-12-04T20:25:05.260Z,18.45
2022-12-04T20:30:08.746Z,18.44
2022-12-04T20:35:12.158Z,18.46
2022-12-04T20:40:15.536Z,18.50
2022-12-04T20:45:19.008Z,18.52
2022-12-04T20:50:22.371Z,18.54
2022-12-04T20:55:25.749Z,18.54
2022-12-04T21:00:29.866Z,18.58
2022-12-04T21:05:33.299Z,18.58
2022-12-04T21:10:36.722Z,18.64
2022-12-04T21:21:14.276Z,18.61
2022-12-04T21:26:17.689Z,18.51
2022-12-04T21:31:21.166Z,18.57
2022-12-04T21:36:24.637Z,18.53
2022-12-04T21:41:51.096Z,18.52
2022-12-04T21:46:54.684Z,18.48
2022-12-04T21:51:59.087Z,18.73
2022-12-04T21:57:02.836Z,18.88
2022-12-04T22:02:06.322Z,18.90
2022-12-04T22:07:10.006Z,18.90
2022-12-04T22:12:41.035Z,18.92
2022-12-04T22:17:38.450Z,18.89
2022-12-04T22:22:41.823Z,18.89
2022-12-04T22:27:45.210Z,18.89
2022-12-04T22:32:49.044Z,18.89
2022-12-04T22:37:52.537Z,18.88
2022-12-04T22:42:55.907Z,18.88
2022-12-04T22:47:59.284Z,18.86
2022-12-04T22:53:02.661Z,18.50
2022-12-04T22:58:06.065Z,18.43
2022-12-04T23:03:09.683Z,18.39
2022-12-04T23:08:13.175Z,18.33
2022-12-04T23:13:16.668Z,18.31
2022-12-04T23:18:20.042Z,18.34
2022-12-04T23:23:23.462Z,18.28
2022-12-04T23:28:26.901Z,18.24
2022-12-04T23:33:30.310Z,18.21
2022-12-04T23:38:33.686Z,18.20
2022-12-04T23:43:37.064Z,18.21
2022-12-04T23:48:40.478Z,18.21
2022-12-04T23:53:43.966Z,18.15
2022-12-04T23:58:47.342Z,18.13
